Terminal Aerodrome Forecast
Issued by NWS

Home | Current Version | Previous Version | Text Only | Print | Product List | Glossary On
Versions: 1 2 3 4 5 6 7 8 9 10 11 12 13 14
000
FTUS42 KMLB 292320
TAFTIX
TAF
KTIX 292320Z 3000/3024 11007KT P6SM FEW040
     FM300200 20004KT P6SM SCT250
     FM301400 25004KT P6SM SCT030
     FM301800 09010KT P6SM SCT040
      AMD NOT SKED 3001/3011=

USA.gov is the U.S. government's official web portal to all federal, state and local government web resources and services.